Monday, September 24, 2018, 9:19 PM GMT
Back to Local

CYHU, Saint Hubert Airport

Location: , , Canada Lat: 45.517
Local Time: 9:19 PM GMT (21:19 GMT) Lon: -73.417
Time Zone: GMT Elev: 88 ft

Show me the last for .
Show Decoded

2018-09-24 21:00 METAR CYHU 242100Z AUTO 04008KT 9SM CLR 14/02 A3050 RMK SLP331 =
2018-09-24 20:00 METAR CYHU 242000Z AUTO 04008KT 010V080 9SM CLR 14/01 A3052 RMK SLP336 =
2018-09-24 19:00 METAR CYHU 241900Z AUTO 08013KT 040V110 9SM CLR 14/M00 A3053 RMK SLP340 =
2018-09-24 18:00 METAR CYHU 241800Z AUTO 04008KT 9SM CLR 13/M00 A3056 RMK SLP350 =
2018-09-24 17:00 METAR CYHU 241700Z AUTO 04012G17KT 9SM CLR 12/01 A3058 RMK SLP356 =
2018-09-24 16:00 METAR CYHU 241600Z AUTO 05009G15KT 9SM CLR 11/M01 A3060 RMK SLP363 =
2018-09-24 15:00 METAR CYHU 241500Z AUTO 06012G19KT 9SM CLR 10/00 A3061 RMK SLP367 =
2018-09-24 14:00 METAR CYHU 241400Z AUTO 06011KT 9SM CLR 08/00 A3063 RMK SLP374 =
2018-09-24 13:00 METAR CYHU 241300Z AUTO 05009KT 9SM CLR 06/01 A3063 RMK SLP373 =
2018-09-24 12:00 METAR CYHU 241200Z AUTO 05009KT 9SM CLR 04/01 A3062 RMK SLP370 =
2018-09-24 11:00 METAR CYHU 241100Z AUTO 05006KT 9SM CLR 02/00 A3060 RMK SLP363 =
2018-09-24 10:00 METAR CYHU 241000Z AUTO 02007KT 9SM CLR 02/00 A3057 RMK SLP354 =
2018-09-24 09:00 METAR CYHU 240900Z AUTO 03009KT 9SM CLR 04/01 A3055 RMK SLP347 =
2018-09-24 08:00 METAR CYHU 240800Z AUTO 02007KT 9SM OVC085 06/02 A3053 RMK SLP340 =
2018-09-24 07:00 METAR CYHU 240700Z AUTO 03005KT 9SM FEW055 OVC091 06/03 A3051 RMK SLP335 =
2018-09-24 06:00 METAR CYHU 240600Z AUTO 03004KT 9SM OVC070 06/02 A3050 RMK SLP331 =
2018-09-24 05:00 METAR CYHU 240500Z AUTO 05005KT 9SM OVC075 07/01 A3049 RMK SLP326 =
2018-09-24 04:00 METAR CYHU 240400Z AUTO 04007KT 9SM FEW060 OVC073 07/01 A3047 RMK SLP321 =
2018-09-24 03:00 METAR CYHU 240300Z AUTO 05008KT 9SM OVC055 08/01 A3045 RMK SLP315 =
2018-09-24 02:00 METAR CYHU 240200Z AUTO 04009KT 9SM OVC044 08/04 A3044 RMK SLP310 =
2018-09-24 01:00 METAR CYHU 240100Z AUTO 05008G15KT 9SM SCT042 OVC050 08/03 A3042 RMK SLP302 =
2018-09-24 00:00 METAR CYHU 240000Z AUTO 04011G16KT 9SM OVC034 09/04 A3039 RMK PRESRR SLP292 =
2018-09-23 23:00 METAR CYHU 232300Z AUTO 03013KT 9SM BKN040 OVC050 10/04 A3035 RMK SLP280 =
2018-09-23 22:00 METAR CYHU 232200Z AUTO 02011G20KT 9SM BKN046 OVC055 11/06 A3031 RMK PRESRR
                 SLP268 =

Support USWX by starting your Amazon purchase here.